Cinderella 1 — SBLK — position and weather

sailwx.info

Track history (hours):
 
Tides and Currents Weather Stations Pressure Air Temp Water Temp Dewpoint Dewpoint Depression Visibility Wind Speed Wind Dir Waves Ship Positions

Cinderella 1

Last reported at 2016-May-29 18:29 UTC. Time now 2016-May-29 19:18 UTC.
Position N 59°23' E 018°17'.

Length 42 m; draft 1.1 m.

Type: Passenger vessel. MMSI: 265524530.

Date/timePositionNaut miles runAvg speedWind from/ knotsBaromVisibWave heightAir tempDewpointWater temp
2016-May-29 18:29N 59°23' E 018°17'6 1.5
2016-May-29 14:12N 59°19' E 018°06'0 0.3
2016-May-29 13:34N 59°19' E 018°06'3 0.5
2016-May-29 08:20N 59°20' E 018°12'3 4.4
2016-May-29 07:34N 59°20' E 018°05'0 0.0
2016-May-29 06:33N 59°20' E 018°05'0 0.0
2016-May-29 05:33N 59°20' E 018°05'0 0.0
2016-May-29 04:33N 59°20' E 018°05'0 0.0
2016-May-29 03:34N 59°20' E 018°05'0 0.0
2016-May-29 02:33N 59°20' E 018°05'0 0.0
2016-May-29 01:33N 59°20' E 018°05'0 0.0
2016-May-29 00:34N 59°20' E 018°05'0 0.0
2016-May-28 23:33N 59°20' E 018°05'0 0.0
2016-May-28 22:33N 59°20' E 018°05'0 0.0
2016-May-28 21:33N 59°20' E 018°05'0 0.0
2016-May-28 20:33N 59°20' E 018°05'0 0.0
2016-May-28 19:33N 59°20' E 018°05'7 6.3
2016-May-28 18:29N 59°22' E 018°17'4 0.4
2016-May-28 08:20N 59°20' E 018°11'3 0.2
2016-May-27 15:34N 59°20' E 018°05'3 2.9
2016-May-27 14:33N 59°20' E 018°11'0 0.1
2016-May-27 10:20N 59°20' E 018°12'3 4.4
2016-May-27 09:33N 59°20' E 018°05'0 0.0
2016-May-27 08:33N 59°20' E 018°05'0 0.0
2016-May-27 07:33N 59°20' E 018°05'0 0.0
2016-May-27 06:33N 59°20' E 018°05'0 0.0
2016-May-27 05:33N 59°20' E 018°05'0 0.0
2016-May-27 04:21N 59°20' E 018°05'0 0.0
2016-May-27 03:28N 59°20' E 018°05'0 0.0
2016-May-27 02:15N 59°20' E 018°05'0 0.0
2016-May-27 01:33N 59°20' E 018°05'0 0.0
2016-May-27 00:33N 59°20' E 018°05'0 0.0
2016-May-26 23:33N 59°20' E 018°05'0 0.0
2016-May-26 22:33N 59°20' E 018°05'0 0.0
2016-May-26 21:32N 59°20' E 018°05'0 0.0
2016-May-26 20:31N 59°20' E 018°05'7 6.2
2016-May-26 19:26N 59°22' E 018°17'7 1.7
2016-May-26 15:28N 59°20' E 018°05'7 6.7
2016-May-26 14:27N 59°23' E 018°17'4 1.0
2016-May-26 10:21N 59°20' E 018°11'3 4.2
2016-May-26 09:33N 59°20' E 018°05'0 0.0
2016-May-26 08:33N 59°20' E 018°05'0 0.0
2016-May-26 07:32N 59°20' E 018°05'0 0.0
2016-May-26 06:33N 59°20' E 018°05'0 0.0
2016-May-26 05:27N 59°20' E 018°05'0 0.0
2016-May-26 04:33N 59°20' E 018°05'0 0.0
2016-May-26 03:33N 59°20' E 018°05'0 0.0
2016-May-26 02:30N 59°20' E 018°05'0 0.0
2016-May-26 01:32N 59°20' E 018°05'0 0.0
2016-May-26 00:32N 59°20' E 018°05'0 0.0
2016-May-25 23:33N 59°20' E 018°05'0 0.0
2016-May-25 22:33N 59°20' E 018°05'0 0.0
2016-May-25 21:20N 59°20' E 018°05'0 0.0
2016-May-25 20:33N 59°20' E 018°05'7 6.0
2016-May-25 19:24N 59°23' E 018°17'7 1.8
2016-May-25 15:33N 59°20' E 018°05'7 5.8
2016-May-25 14:25N 59°23' E 018°17'4 1.0
2016-May-25 10:22N 59°20' E 018°12'3 3.4
2016-May-25 09:21N 59°20' E 018°05'0 0.0
2016-May-25 08:32N 59°20' E 018°05'0 0.0
2016-May-25 07:32N 59°20' E 018°05'0 0.0
2016-May-25 06:33N 59°20' E 018°05'0 0.0
2016-May-25 05:33N 59°20' E 018°05'0 0.0
2016-May-25 04:33N 59°20' E 018°05'0 0.0
2016-May-25 03:33N 59°20' E 018°05'0 0.0
2016-May-25 02:33N 59°20' E 018°05'0 0.0
2016-May-25 01:33N 59°20' E 018°05'0 0.0
2016-May-25 00:33N 59°20' E 018°05'0 0.0
2016-May-24 23:33N 59°20' E 018°05'0 0.0
2016-May-24 22:33N 59°20' E 018°05'0 0.0
2016-May-24 21:33N 59°20' E 018°05'0 0.0
2016-May-24 20:33N 59°20' E 018°05'4 3.8
2016-May-24 19:33N 59°20' E 018°12'4 1.2
2016-May-24 16:07N 59°23' E 018°19'813.5
2016-May-24 15:34N 59°20' E 018°05'7 6.1
2016-May-24 14:28N 59°23' E 018°17'4 1.0
2016-May-24 10:21N 59°20' E 018°12'3 4.3
2016-May-24 09:33N 59°20' E 018°05'0 0.0
2016-May-24 08:33N 59°20' E 018°05'0 0.0
2016-May-24 07:33N 59°20' E 018°05'0 0.0
2016-May-24 06:33N 59°20' E 018°05'0 0.0
2016-May-24 05:33N 59°20' E 018°05'0 0.0
2016-May-24 04:33N 59°20' E 018°05'0 0.0
2016-May-24 03:33N 59°20' E 018°05'0 0.0
2016-May-24 02:33N 59°20' E 018°05'0 0.0
2016-May-24 01:33N 59°20' E 018°05'0 0.0
2016-May-24 00:34N 59°20' E 018°05'0 0.0
2016-May-23 23:33N 59°20' E 018°05'0 0.0
2016-May-23 22:33N 59°20' E 018°05'0 0.0
2016-May-23 21:34N 59°20' E 018°05'0 0.0
2016-May-23 20:33N 59°20' E 018°05'6 5.2
2016-May-23 19:28N 59°22' E 018°15'6 1.4
2016-May-23 15:33N 59°20' E 018°05'6 5.2
2016-May-23 14:28N 59°22' E 018°15'3 0.7
2016-May-23 10:21N 59°20' E 018°11'3 4.3
2016-May-23 09:33N 59°20' E 018°05'0 0.0
2016-May-23 08:33N 59°20' E 018°05'0 0.0
2016-May-23 07:33N 59°20' E 018°05'0 0.0
2016-May-23 06:33N 59°20' E 018°05'0 0.0
2016-May-23 05:32N 59°20' E 018°05'0 0.0
2016-May-23 04:33N 59°20' E 018°05'0 0.0
2016-May-23 03:33N 59°20' E 018°05'0 0.0
2016-May-23 02:33N 59°20' E 018°05'0 0.0
2016-May-23 01:33N 59°20' E 018°05'0 0.0
2016-May-23 00:33N 59°20' E 018°05'0 0.0
2016-May-22 23:33N 59°20' E 018°05'0 0.0
2016-May-22 22:33N 59°20' E 018°05'0 0.0
2016-May-22 21:33N 59°20' E 018°05'0 0.0
2016-May-22 20:33N 59°20' E 018°05'0 0.0
2016-May-22 19:33N 59°20' E 018°05'7 6.6
2016-May-22 18:31N 59°23' E 018°17'4 0.9
2016-May-22 14:19N 59°20' E 018°12'3 3.6
2016-May-22 13:33N 59°19' E 018°06'1 0.1
2016-May-21 20:03N 59°20' E 018°05'0 0.0
2016-May-21 19:33N 59°20' E 018°05'7 6.7
2016-May-21 18:32N 59°22' E 018°17'2 0.4
2016-May-21 14:29N 59°21' E 018°14'5 5.2
2016-May-21 13:33N 59°19' E 018°06'1 0.1
2016-May-21 08:10N 59°19' E 018°07'1 2.1
2016-May-21 07:31N 59°20' E 018°05'0 0.0
2016-May-21 06:28N 59°20' E 018°05'0 0.0
2016-May-21 05:31N 59°20' E 018°05'0 0.0
2016-May-21 04:32N 59°20' E 018°05'0 0.0
2016-May-21 03:33N 59°20' E 018°05'0 0.0
2016-May-21 02:33N 59°20' E 018°05'0 0.0
2016-May-21 01:33N 59°20' E 018°05'0 0.0
2016-May-21 00:33N 59°20' E 018°05'0 0.0
2016-May-20 23:33N 59°20' E 018°05'0 0.0
2016-May-20 22:33N 59°20' E 018°05'0 0.0
2016-May-20 21:33N 59°20' E 018°05'0 0.0
2016-May-20 20:33N 59°20' E 018°05'0 0.1
2016-May-20 15:34N 59°20' E 018°05'7 5.9
2016-May-20 14:26N 59°22' E 018°17'2 0.4
2016-May-20 10:28N 59°21' E 018°14'5 5.5
2016-May-20 09:33N 59°20' E 018°05'0 0.0
2016-May-20 07:33N 59°20' E 018°05'0 0.0
2016-May-20 06:25N 59°20' E 018°05'0 0.0
2016-May-20 05:33N 59°20' E 018°05'0 0.0
2016-May-20 04:33N 59°20' E 018°05'0 0.0
2016-May-20 03:33N 59°20' E 018°05'0 0.0
2016-May-20 02:33N 59°20' E 018°05'0 0.0
2016-May-20 01:33N 59°20' E 018°05'0 0.0
2016-May-20 00:33N 59°20' E 018°05'0 0.0
2016-May-19 23:33N 59°20' E 018°05'0 0.0
2016-May-19 22:33N 59°20' E 018°05'0 0.0
2016-May-19 21:33N 59°20' E 018°05'0 0.0
2016-May-19 20:33N 59°20' E 018°05'2 2.1
2016-May-19 19:32N 59°19' E 018°09'  
Track history (hours):
 
Tides and Currents Weather Stations Pressure Air Temp Water Temp Dewpoint Dewpoint Depression Visibility Wind Speed Wind Dir Waves Ship Positions

Cinderella 1

Last reported at 2016-May-29 18:29 UTC. Time now 2016-May-29 19:18 UTC.
Position N 59°23' E 018°17'.

Length 42 m; draft 1.1 m.

Type: Passenger vessel. MMSI: 265524530.

Date/timePositionNaut miles runAvg speedWind from/ knotsBaromVisibWave heightAir tempDewpointWater temp
2016-May-29 18:29N 59°23' E 018°17'6 1.5
2016-May-29 14:12N 59°19' E 018°06'0 0.3
2016-May-29 13:34N 59°19' E 018°06'3 0.5
2016-May-29 08:20N 59°20' E 018°12'3 4.4
2016-May-29 07:34N 59°20' E 018°05'0 0.0
2016-May-29 06:33N 59°20' E 018°05'0 0.0
2016-May-29 05:33N 59°20' E 018°05'0 0.0
2016-May-29 04:33N 59°20' E 018°05'0 0.0
2016-May-29 03:34N 59°20' E 018°05'0 0.0
2016-May-29 02:33N 59°20' E 018°05'0 0.0
2016-May-29 01:33N 59°20' E 018°05'0 0.0
2016-May-29 00:34N 59°20' E 018°05'0 0.0
2016-May-28 23:33N 59°20' E 018°05'0 0.0
2016-May-28 22:33N 59°20' E 018°05'0 0.0
2016-May-28 21:33N 59°20' E 018°05'0 0.0
2016-May-28 20:33N 59°20' E 018°05'0 0.0
2016-May-28 19:33N 59°20' E 018°05'7 6.3
2016-May-28 18:29N 59°22' E 018°17'4 0.4
2016-May-28 08:20N 59°20' E 018°11'3 0.2
2016-May-27 15:34N 59°20' E 018°05'3 2.9
2016-May-27 14:33N 59°20' E 018°11'0 0.1
2016-May-27 10:20N 59°20' E 018°12'3 4.4
2016-May-27 09:33N 59°20' E 018°05'0 0.0
2016-May-27 08:33N 59°20' E 018°05'0 0.0
2016-May-27 07:33N 59°20' E 018°05'0 0.0
2016-May-27 06:33N 59°20' E 018°05'0 0.0
2016-May-27 05:33N 59°20' E 018°05'0 0.0
2016-May-27 04:21N 59°20' E 018°05'0 0.0
2016-May-27 03:28N 59°20' E 018°05'0 0.0
2016-May-27 02:15N 59°20' E 018°05'0 0.0
2016-May-27 01:33N 59°20' E 018°05'0 0.0
2016-May-27 00:33N 59°20' E 018°05'0 0.0
2016-May-26 23:33N 59°20' E 018°05'0 0.0
2016-May-26 22:33N 59°20' E 018°05'0 0.0
2016-May-26 21:32N 59°20' E 018°05'0 0.0
2016-May-26 20:31N 59°20' E 018°05'7 6.2
2016-May-26 19:26N 59°22' E 018°17'7 1.7
2016-May-26 15:28N 59°20' E 018°05'7 6.7
2016-May-26 14:27N 59°23' E 018°17'4 1.0
2016-May-26 10:21N 59°20' E 018°11'3 4.2
2016-May-26 09:33N 59°20' E 018°05'0 0.0
2016-May-26 08:33N 59°20' E 018°05'0 0.0
2016-May-26 07:32N 59°20' E 018°05'0 0.0
2016-May-26 06:33N 59°20' E 018°05'0 0.0
2016-May-26 05:27N 59°20' E 018°05'0 0.0
2016-May-26 04:33N 59°20' E 018°05'0 0.0
2016-May-26 03:33N 59°20' E 018°05'0 0.0
2016-May-26 02:30N 59°20' E 018°05'0 0.0
2016-May-26 01:32N 59°20' E 018°05'0 0.0
2016-May-26 00:32N 59°20' E 018°05'0 0.0
2016-May-25 23:33N 59°20' E 018°05'0 0.0
2016-May-25 22:33N 59°20' E 018°05'0 0.0
2016-May-25 21:20N 59°20' E 018°05'0 0.0
2016-May-25 20:33N 59°20' E 018°05'7 6.0
2016-May-25 19:24N 59°23' E 018°17'7 1.8
2016-May-25 15:33N 59°20' E 018°05'7 5.8
2016-May-25 14:25N 59°23' E 018°17'4 1.0
2016-May-25 10:22N 59°20' E 018°12'3 3.4
2016-May-25 09:21N 59°20' E 018°05'0 0.0
2016-May-25 08:32N 59°20' E 018°05'0 0.0
2016-May-25 07:32N 59°20' E 018°05'0 0.0
2016-May-25 06:33N 59°20' E 018°05'0 0.0
2016-May-25 05:33N 59°20' E 018°05'0 0.0
2016-May-25 04:33N 59°20' E 018°05'0 0.0
2016-May-25 03:33N 59°20' E 018°05'0 0.0
2016-May-25 02:33N 59°20' E 018°05'0 0.0
2016-May-25 01:33N 59°20' E 018°05'0 0.0
2016-May-25 00:33N 59°20' E 018°05'0 0.0
2016-May-24 23:33N 59°20' E 018°05'0 0.0
2016-May-24 22:33N 59°20' E 018°05'0 0.0
2016-May-24 21:33N 59°20' E 018°05'0 0.0
2016-May-24 20:33N 59°20' E 018°05'4 3.8
2016-May-24 19:33N 59°20' E 018°12'4 1.2
2016-May-24 16:07N 59°23' E 018°19'813.5
2016-May-24 15:34N 59°20' E 018°05'7 6.1
2016-May-24 14:28N 59°23' E 018°17'4 1.0
2016-May-24 10:21N 59°20' E 018°12'3 4.3
2016-May-24 09:33N 59°20' E 018°05'0 0.0
2016-May-24 08:33N 59°20' E 018°05'0 0.0
2016-May-24 07:33N 59°20' E 018°05'0 0.0
2016-May-24 06:33N 59°20' E 018°05'0 0.0
2016-May-24 05:33N 59°20' E 018°05'0 0.0
2016-May-24 04:33N 59°20' E 018°05'0 0.0
2016-May-24 03:33N 59°20' E 018°05'0 0.0
2016-May-24 02:33N 59°20' E 018°05'0 0.0
2016-May-24 01:33N 59°20' E 018°05'0 0.0
2016-May-24 00:34N 59°20' E 018°05'0 0.0
2016-May-23 23:33N 59°20' E 018°05'0 0.0
2016-May-23 22:33N 59°20' E 018°05'0 0.0
2016-May-23 21:34N 59°20' E 018°05'0 0.0
2016-May-23 20:33N 59°20' E 018°05'6 5.2
2016-May-23 19:28N 59°22' E 018°15'6 1.4
2016-May-23 15:33N 59°20' E 018°05'6 5.2
2016-May-23 14:28N 59°22' E 018°15'3 0.7
2016-May-23 10:21N 59°20' E 018°11'3 4.3
2016-May-23 09:33N 59°20' E 018°05'0 0.0
2016-May-23 08:33N 59°20' E 018°05'0 0.0
2016-May-23 07:33N 59°20' E 018°05'0 0.0
2016-May-23 06:33N 59°20' E 018°05'0 0.0
2016-May-23 05:32N 59°20' E 018°05'0 0.0
2016-May-23 04:33N 59°20' E 018°05'0 0.0
2016-May-23 03:33N 59°20' E 018°05'0 0.0
2016-May-23 02:33N 59°20' E 018°05'0 0.0
2016-May-23 01:33N 59°20' E 018°05'0 0.0
2016-May-23 00:33N 59°20' E 018°05'0 0.0
2016-May-22 23:33N 59°20' E 018°05'0 0.0
2016-May-22 22:33N 59°20' E 018°05'0 0.0
2016-May-22 21:33N 59°20' E 018°05'0 0.0
2016-May-22 20:33N 59°20' E 018°05'0 0.0
2016-May-22 19:33N 59°20' E 018°05'7 6.6
2016-May-22 18:31N 59°23' E 018°17'4 0.9
2016-May-22 14:19N 59°20' E 018°12'3 3.6
2016-May-22 13:33N 59°19' E 018°06'1 0.1
2016-May-21 20:03N 59°20' E 018°05'0 0.0
2016-May-21 19:33N 59°20' E 018°05'7 6.7
2016-May-21 18:32N 59°22' E 018°17'2 0.4
2016-May-21 14:29N 59°21' E 018°14'5 5.2
2016-May-21 13:33N 59°19' E 018°06'1 0.1
2016-May-21 08:10N 59°19' E 018°07'1 2.1
2016-May-21 07:31N 59°20' E 018°05'0 0.0
2016-May-21 06:28N 59°20' E 018°05'0 0.0
2016-May-21 05:31N 59°20' E 018°05'0 0.0
2016-May-21 04:32N 59°20' E 018°05'0 0.0
2016-May-21 03:33N 59°20' E 018°05'0 0.0
2016-May-21 02:33N 59°20' E 018°05'0 0.0
2016-May-21 01:33N 59°20' E 018°05'0 0.0
2016-May-21 00:33N 59°20' E 018°05'0 0.0
2016-May-20 23:33N 59°20' E 018°05'0 0.0
2016-May-20 22:33N 59°20' E 018°05'0 0.0
2016-May-20 21:33N 59°20' E 018°05'0 0.0
2016-May-20 20:33N 59°20' E 018°05'0 0.1
2016-May-20 15:34N 59°20' E 018°05'7 5.9
2016-May-20 14:26N 59°22' E 018°17'2 0.4
2016-May-20 10:28N 59°21' E 018°14'5 5.5
2016-May-20 09:33N 59°20' E 018°05'0 0.0
2016-May-20 07:33N 59°20' E 018°05'0 0.0
2016-May-20 06:25N 59°20' E 018°05'0 0.0
2016-May-20 05:33N 59°20' E 018°05'0 0.0
2016-May-20 04:33N 59°20' E 018°05'0 0.0
2016-May-20 03:33N 59°20' E 018°05'0 0.0
2016-May-20 02:33N 59°20' E 018°05'0 0.0
2016-May-20 01:33N 59°20' E 018°05'0 0.0
2016-May-20 00:33N 59°20' E 018°05'0 0.0
2016-May-19 23:33N 59°20' E 018°05'0 0.0
2016-May-19 22:33N 59°20' E 018°05'0 0.0
2016-May-19 21:33N 59°20' E 018°05'0 0.0
2016-May-19 20:33N 59°20' E 018°05'2 2.1
2016-May-19 19:32N 59°19' E 018°09'  

Dump ship's entire track history